sensor_id;sensor_type;location;lat;lon;timestamp;temperature;humidity
2407;DHT22;37709;53.480;9.688;2023-07-31T00:00:54;13.20;99.90
2407;DHT22;37709;53.480;9.688;2023-07-31T00:03:21;13.30;99.90
2407;DHT22;37709;53.480;9.688;2023-07-31T00:05:50;13.30;99.90
2407;DHT22;37709;53.480;9.688;2023-07-31T00:08:18;13.30;99.90
2407;DHT22;37709;53.480;9.688;2023-07-31T00:10:46;13.40;99.90
2407;DHT22;37709;53.480;9.688;2023-07-31T00:13:13;13.40;99.90
2407;DHT22;37709;53.480;9.688;2023-07-31T00:15:41;13.40;99.90
2407;DHT22;37709;53.480;9.688;2023-07-31T00:18:08;13.40;99.90
2407;DHT22;37709;53.480;9.688;2023-07-31T00:20:36;13.40;99.90
2407;DHT22;37709;53.480;9.688;2023-07-31T00:23:03;13.40;99.90
2407;DHT22;37709;53.480;9.688;2023-07-31T00:25:31;13.40;99.90
2407;DHT22;37709;53.480;9.688;2023-07-31T00:27:58;13.30;99.90
2407;DHT22;37709;53.480;9.688;2023-07-31T00:30:26;13.20;99.90
2407;DHT22;37709;53.480;9.688;2023-07-31T00:32:54;13.20;99.90
2407;DHT22;37709;53.480;9.688;2023-07-31T00:35:21;13.20;99.90
2407;DHT22;37709;53.480;9.688;2023-07-31T00:37:48;13.10;99.90
2407;DHT22;37709;53.480;9.688;2023-07-31T00:40:16;13.10;99.90
2407;DHT22;37709;53.480;9.688;2023-07-31T00:42:43;13.10;99.90
2407;DHT22;37709;53.480;9.688;2023-07-31T00:45:11;13.00;99.90
2407;DHT22;37709;53.480;9.688;2023-07-31T00:47:39;12.90;99.90
2407;DHT22;37709;53.480;9.688;2023-07-31T00:50:08;12.90;99.90
2407;DHT22;37709;53.480;9.688;2023-07-31T00:52:35;12.90;99.90
2407;DHT22;37709;53.480;9.688;2023-07-31T00:55:04;12.80;99.90
2407;DHT22;37709;53.480;9.688;2023-07-31T00:57:32;12.90;99.90
2407;DHT22;37709;53.480;9.688;2023-07-31T00:59:59;12.80;99.90
2407;DHT22;37709;53.480;9.688;2023-07-31T01:02:27;12.80;99.90
2407;DHT22;37709;53.480;9.688;2023-07-31T01:04:55;12.80;99.90
2407;DHT22;37709;53.480;9.688;2023-07-31T01:08:24;12.80;99.90
2407;DHT22;37709;53.480;9.688;2023-07-31T01:10:36;12.70;99.90
2407;DHT22;37709;53.480;9.688;2023-07-31T01:13:05;12.80;99.90
2407;DHT22;37709;53.480;9.688;2023-07-31T01:15:33;12.80;99.90
2407;DHT22;37709;53.480;9.688;2023-07-31T01:18:00;12.80;99.90
2407;DHT22;37709;53.480;9.688;2023-07-31T01:20:28;12.90;99.90
2407;DHT22;37709;53.480;9.688;2023-07-31T01:23:29;13.00;99.90
2407;DHT22;37709;53.480;9.688;2023-07-31T01:26:11;13.00;99.90
2407;DHT22;37709;53.480;9.688;2023-07-31T01:28:47;13.10;99.90
2407;DHT22;37709;53.480;9.688;2023-07-31T01:31:20;13.20;99.90
2407;DHT22;37709;53.480;9.688;2023-07-31T01:33:56;13.20;99.90
2407;DHT22;37709;53.480;9.688;2023-07-31T01:36:25;13.30;99.90
2407;DHT22;37709;53.480;9.688;2023-07-31T01:39:01;13.30;99.90
2407;DHT22;37709;53.480;9.688;2023-07-31T01:41:30;13.30;99.90
2407;DHT22;37709;53.480;9.688;2023-07-31T01:43:57;13.30;99.90
2407;DHT22;37709;53.480;9.688;2023-07-31T01:46:25;13.30;99.90
2407;DHT22;37709;53.480;9.688;2023-07-31T01:49:17;13.30;99.90
2407;DHT22;37709;53.480;9.688;2023-07-31T01:51:44;13.30;99.90
2407;DHT22;37709;53.480;9.688;2023-07-31T01:54:12;13.30;99.90
2407;DHT22;37709;53.480;9.688;2023-07-31T01:56:40;13.30;99.90
2407;DHT22;37709;53.480;9.688;2023-07-31T01:59:08;13.30;99.90
2407;DHT22;37709;53.480;9.688;2023-07-31T02:01:36;13.40;99.90
2407;DHT22;37709;53.480;9.688;2023-07-31T02:04:08;13.40;99.90
2407;DHT22;37709;53.480;9.688;2023-07-31T02:06:38;13.40;99.90
2407;DHT22;37709;53.480;9.688;2023-07-31T02:09:06;13.40;99.90
2407;DHT22;37709;53.480;9.688;2023-07-31T02:11:33;13.40;99.90
2407;DHT22;37709;53.480;9.688;2023-07-31T02:14:03;13.50;99.90
2407;DHT22;37709;53.480;9.688;2023-07-31T02:16:31;13.50;99.90
2407;DHT22;37709;53.480;9.688;2023-07-31T02:18:58;13.50;99.90
2407;DHT22;37709;53.480;9.688;2023-07-31T02:21:26;13.60;99.90
2407;DHT22;37709;53.480;9.688;2023-07-31T02:23:54;13.60;99.90
2407;DHT22;37709;53.480;9.688;2023-07-31T02:26:23;13.60;99.90
2407;DHT22;37709;53.480;9.688;2023-07-31T02:28:51;13.60;99.90
2407;DHT22;37709;53.480;9.688;2023-07-31T02:31:18;13.70;99.90
2407;DHT22;37709;53.480;9.688;2023-07-31T02:33:49;13.70;99.90
2407;DHT22;37709;53.480;9.688;2023-07-31T02:36:16;13.70;99.90
2407;DHT22;37709;53.480;9.688;2023-07-31T02:38:47;13.70;99.90
2407;DHT22;37709;53.480;9.688;2023-07-31T02:41:15;13.70;99.90
2407;DHT22;37709;53.480;9.688;2023-07-31T02:43:42;13.70;99.90
2407;DHT22;37709;53.480;9.688;2023-07-31T02:46:10;13.70;99.90
2407;DHT22;37709;53.480;9.688;2023-07-31T02:48:37;13.70;99.90
2407;DHT22;37709;53.480;9.688;2023-07-31T02:51:30;13.70;99.90
2407;DHT22;37709;53.480;9.688;2023-07-31T02:53:57;13.80;99.90
2407;DHT22;37709;53.480;9.688;2023-07-31T02:56:27;13.80;99.90
2407;DHT22;37709;53.480;9.688;2023-07-31T02:58:55;13.80;99.90
2407;DHT22;37709;53.480;9.688;2023-07-31T03:01:23;13.80;99.90
2407;DHT22;37709;53.480;9.688;2023-07-31T03:04:16;13.80;99.90
2407;DHT22;37709;53.480;9.688;2023-07-31T03:06:45;13.80;99.90
2407;DHT22;37709;53.480;9.688;2023-07-31T03:09:13;13.80;99.90
2407;DHT22;37709;53.480;9.688;2023-07-31T03:11:41;13.80;99.90
2407;DHT22;37709;53.480;9.688;2023-07-31T03:14:08;13.80;99.90
2407;DHT22;37709;53.480;9.688;2023-07-31T03:16:35;13.80;99.90
2407;DHT22;37709;53.480;9.688;2023-07-31T03:19:03;13.80;99.90
2407;DHT22;37709;53.480;9.688;2023-07-31T03:21:31;13.80;99.90
2407;DHT22;37709;53.480;9.688;2023-07-31T03:23:58;13.90;99.90
2407;DHT22;37709;53.480;9.688;2023-07-31T03:26:26;14.00;99.90
2407;DHT22;37709;53.480;9.688;2023-07-31T03:28:53;14.00;99.90
2407;DHT22;37709;53.480;9.688;2023-07-31T03:31:21;14.10;99.90
2407;DHT22;37709;53.480;9.688;2023-07-31T03:33:48;14.10;99.90
2407;DHT22;37709;53.480;9.688;2023-07-31T03:36:16;14.10;99.90
2407;DHT22;37709;53.480;9.688;2023-07-31T03:38:45;14.20;99.90
2407;DHT22;37709;53.480;9.688;2023-07-31T03:41:13;14.20;99.90
2407;DHT22;37709;53.480;9.688;2023-07-31T03:43:48;14.20;99.90
2407;DHT22;37709;53.480;9.688;2023-07-31T03:46:20;14.30;99.90
2407;DHT22;37709;53.480;9.688;2023-07-31T03:48:49;14.30;99.90
2407;DHT22;37709;53.480;9.688;2023-07-31T03:51:20;14.30;99.90
2407;DHT22;37709;53.480;9.688;2023-07-31T03:53:53;14.30;99.90
2407;DHT22;37709;53.480;9.688;2023-07-31T03:56:21;14.40;99.90
2407;DHT22;37709;53.480;9.688;2023-07-31T03:58:48;14.40;99.90
2407;DHT22;37709;53.480;9.688;2023-07-31T04:04:24;14.40;99.90
2407;DHT22;37709;53.480;9.688;2023-07-31T04:06:52;14.40;99.90
2407;DHT22;37709;53.480;9.688;2023-07-31T04:09:19;14.40;99.90
2407;DHT22;37709;53.480;9.688;2023-07-31T04:11:46;14.40;99.90
2407;DHT22;37709;53.480;9.688;2023-07-31T04:14:13;14.40;99.90
2407;DHT22;37709;53.480;9.688;2023-07-31T04:16:41;14.40;99.90
2407;DHT22;37709;53.480;9.688;2023-07-31T04:19:09;14.40;99.90
2407;DHT22;37709;53.480;9.688;2023-07-31T04:21:37;14.40;99.90
2407;DHT22;37709;53.480;9.688;2023-07-31T04:24:04;14.30;99.90
2407;DHT22;37709;53.480;9.688;2023-07-31T04:26:32;14.30;99.90
2407;DHT22;37709;53.480;9.688;2023-07-31T04:29:25;14.30;99.90
2407;DHT22;37709;53.480;9.688;2023-07-31T04:31:52;14.30;99.90
2407;DHT22;37709;53.480;9.688;2023-07-31T04:34:20;14.30;99.90
2407;DHT22;37709;53.480;9.688;2023-07-31T04:36:48;14.30;99.90
2407;DHT22;37709;53.480;9.688;2023-07-31T04:39:15;14.30;99.90
2407;DHT22;37709;53.480;9.688;2023-07-31T04:41:43;14.30;99.90
2407;DHT22;37709;53.480;9.688;2023-07-31T04:44:10;14.30;99.90
2407;DHT22;37709;53.480;9.688;2023-07-31T04:46:38;14.30;99.90
2407;DHT22;37709;53.480;9.688;2023-07-31T04:49:07;14.30;99.90
2407;DHT22;37709;53.480;9.688;2023-07-31T04:51:34;14.30;99.90
2407;DHT22;37709;53.480;9.688;2023-07-31T04:54:01;14.30;99.90
2407;DHT22;37709;53.480;9.688;2023-07-31T04:56:32;14.30;99.90
2407;DHT22;37709;53.480;9.688;2023-07-31T04:59:00;14.40;99.90
2407;DHT22;37709;53.480;9.688;2023-07-31T05:01:27;14.30;99.90
2407;DHT22;37709;53.480;9.688;2023-07-31T05:03:55;14.30;99.90
2407;DHT22;37709;53.480;9.688;2023-07-31T05:06:22;14.30;99.90
2407;DHT22;37709;53.480;9.688;2023-07-31T05:08:49;14.30;99.90
2407;DHT22;37709;53.480;9.688;2023-07-31T05:11:17;14.30;99.90
2407;DHT22;37709;53.480;9.688;2023-07-31T05:13:45;14.40;99.90
2407;DHT22;37709;53.480;9.688;2023-07-31T05:16:12;14.40;99.90
2407;DHT22;37709;53.480;9.688;2023-07-31T05:18:39;14.50;99.90
2407;DHT22;37709;53.480;9.688;2023-07-31T05:21:08;14.50;99.90
2407;DHT22;37709;53.480;9.688;2023-07-31T05:23:35;14.50;99.90
2407;DHT22;37709;53.480;9.688;2023-07-31T05:26:05;14.60;99.90
2407;DHT22;37709;53.480;9.688;2023-07-31T05:28:34;14.60;99.90
2407;DHT22;37709;53.480;9.688;2023-07-31T05:31:03;14.60;99.90
2407;DHT22;37709;53.480;9.688;2023-07-31T05:33:31;14.70;99.90
2407;DHT22;37709;53.480;9.688;2023-07-31T05:35:58;14.70;99.90
2407;DHT22;37709;53.480;9.688;2023-07-31T05:38:25;14.80;99.90
2407;DHT22;37709;53.480;9.688;2023-07-31T05:40:53;14.80;99.90
2407;DHT22;37709;53.480;9.688;2023-07-31T05:43:20;14.80;99.90
2407;DHT22;37709;53.480;9.688;2023-07-31T05:45:48;14.80;99.90
2407;DHT22;37709;53.480;9.688;2023-07-31T05:48:15;14.90;99.90
2407;DHT22;37709;53.480;9.688;2023-07-31T05:50:43;15.00;99.90
2407;DHT22;37709;53.480;9.688;2023-07-31T05:53:12;15.10;99.90
2407;DHT22;37709;53.480;9.688;2023-07-31T05:55:40;15.20;99.90
2407;DHT22;37709;53.480;9.688;2023-07-31T05:58:07;15.40;99.90
2407;DHT22;37709;53.480;9.688;2023-07-31T06:00:34;15.40;99.90
2407;DHT22;37709;53.480;9.688;2023-07-31T06:03:02;15.50;99.90
2407;DHT22;37709;53.480;9.688;2023-07-31T06:05:29;15.50;99.90
2407;DHT22;37709;53.480;9.688;2023-07-31T06:08:24;15.50;99.90
2407;DHT22;37709;53.480;9.688;2023-07-31T06:10:51;15.60;99.90
2407;DHT22;37709;53.480;9.688;2023-07-31T06:13:19;15.70;99.90
2407;DHT22;37709;53.480;9.688;2023-07-31T06:16:14;15.80;99.90
2407;DHT22;37709;53.480;9.688;2023-07-31T06:18:43;15.90;99.90
2407;DHT22;37709;53.480;9.688;2023-07-31T06:21:11;15.90;99.90
2407;DHT22;37709;53.480;9.688;2023-07-31T06:23:38;16.00;99.90
2407;DHT22;37709;53.480;9.688;2023-07-31T06:26:06;16.00;99.90
2407;DHT22;37709;53.480;9.688;2023-07-31T06:28:34;16.00;99.90
2407;DHT22;37709;53.480;9.688;2023-07-31T06:31:02;16.00;99.90
2407;DHT22;37709;53.480;9.688;2023-07-31T06:33:29;16.10;99.90
2407;DHT22;37709;53.480;9.688;2023-07-31T06:35:57;16.20;99.90
2407;DHT22;37709;53.480;9.688;2023-07-31T06:38:26;16.30;99.90
2407;DHT22;37709;53.480;9.688;2023-07-31T06:40:54;16.20;99.90
2407;DHT22;37709;53.480;9.688;2023-07-31T06:43:22;16.20;99.90
2407;DHT22;37709;53.480;9.688;2023-07-31T06:45:49;16.20;99.90
2407;DHT22;37709;53.480;9.688;2023-07-31T06:48:18;16.00;99.90
2407;DHT22;37709;53.480;9.688;2023-07-31T06:50:46;15.80;99.90
2407;DHT22;37709;53.480;9.688;2023-07-31T06:53:38;15.70;99.90
2407;DHT22;37709;53.480;9.688;2023-07-31T06:56:06;15.60;99.90
2407;DHT22;37709;53.480;9.688;2023-07-31T06:58:34;15.70;99.90
2407;DHT22;37709;53.480;9.688;2023-07-31T07:01:01;15.90;99.90
2407;DHT22;37709;53.480;9.688;2023-07-31T07:03:34;16.00;99.90
2407;DHT22;37709;53.480;9.688;2023-07-31T07:06:01;16.20;99.90
2407;DHT22;37709;53.480;9.688;2023-07-31T07:08:29;16.20;99.90
2407;DHT22;37709;53.480;9.688;2023-07-31T07:10:57;16.30;99.90
2407;DHT22;37709;53.480;9.688;2023-07-31T07:13:25;16.50;99.90
2407;DHT22;37709;53.480;9.688;2023-07-31T07:15:53;16.60;99.90
2407;DHT22;37709;53.480;9.688;2023-07-31T07:18:21;16.70;99.90
2407;DHT22;37709;53.480;9.688;2023-07-31T07:20:53;16.70;99.90
2407;DHT22;37709;53.480;9.688;2023-07-31T07:23:21;16.70;99.90
2407;DHT22;37709;53.480;9.688;2023-07-31T07:25:48;16.80;99.90
2407;DHT22;37709;53.480;9.688;2023-07-31T07:28:15;17.10;99.90
2407;DHT22;37709;53.480;9.688;2023-07-31T07:30:43;17.30;99.90
2407;DHT22;37709;53.480;9.688;2023-07-31T07:33:11;17.20;99.90
2407;DHT22;37709;53.480;9.688;2023-07-31T07:36:04;17.20;99.90
2407;DHT22;37709;53.480;9.688;2023-07-31T07:38:32;17.40;99.90
2407;DHT22;37709;53.480;9.688;2023-07-31T07:41:00;17.70;99.90
2407;DHT22;37709;53.480;9.688;2023-07-31T07:43:28;18.00;99.90
2407;DHT22;37709;53.480;9.688;2023-07-31T07:45:56;18.10;99.90
2407;DHT22;37709;53.480;9.688;2023-07-31T07:48:24;18.20;99.90
2407;DHT22;37709;53.480;9.688;2023-07-31T07:50:52;18.30;99.90
2407;DHT22;37709;53.480;9.688;2023-07-31T07:53:21;18.80;99.90
2407;DHT22;37709;53.480;9.688;2023-07-31T07:55:48;19.60;99.90
2407;DHT22;37709;53.480;9.688;2023-07-31T07:58:15;20.00;99.90
2407;DHT22;37709;53.480;9.688;2023-07-31T08:00:49;20.30;99.90
2407;DHT22;37709;53.480;9.688;2023-07-31T08:03:18;20.50;99.90
2407;DHT22;37709;53.480;9.688;2023-07-31T08:05:45;20.60;99.90
2407;DHT22;37709;53.480;9.688;2023-07-31T08:08:16;20.50;99.90
2407;DHT22;37709;53.480;9.688;2023-07-31T08:10:44;19.90;99.90
2407;DHT22;37709;53.480;9.688;2023-07-31T08:13:11;19.40;99.90
2407;DHT22;37709;53.480;9.688;2023-07-31T08:15:43;19.20;99.90
2407;DHT22;37709;53.480;9.688;2023-07-31T08:18:11;19.20;99.90
2407;DHT22;37709;53.480;9.688;2023-07-31T08:20:39;18.90;99.90
2407;DHT22;37709;53.480;9.688;2023-07-31T08:23:06;18.80;99.90
2407;DHT22;37709;53.480;9.688;2023-07-31T08:25:38;19.20;99.90
2407;DHT22;37709;53.480;9.688;2023-07-31T08:28:06;19.40;99.90
2407;DHT22;37709;53.480;9.688;2023-07-31T08:30:34;19.50;99.90
2407;DHT22;37709;53.480;9.688;2023-07-31T08:33:01;19.40;99.90
2407;DHT22;37709;53.480;9.688;2023-07-31T08:35:29;19.50;99.90
2407;DHT22;37709;53.480;9.688;2023-07-31T08:37:56;19.50;99.90
2407;DHT22;37709;53.480;9.688;2023-07-31T08:40:23;19.80;99.90
2407;DHT22;37709;53.480;9.688;2023-07-31T08:42:54;20.00;99.90
2407;DHT22;37709;53.480;9.688;2023-07-31T08:45:24;19.60;99.90
2407;DHT22;37709;53.480;9.688;2023-07-31T08:47:51;19.20;99.90
2407;DHT22;37709;53.480;9.688;2023-07-31T08:50:21;19.10;99.90
2407;DHT22;37709;53.480;9.688;2023-07-31T08:52:50;19.40;99.90
2407;DHT22;37709;53.480;9.688;2023-07-31T08:55:18;19.90;99.90
2407;DHT22;37709;53.480;9.688;2023-07-31T08:57:56;19.90;99.90
2407;DHT22;37709;53.480;9.688;2023-07-31T09:00:24;19.60;99.90
2407;DHT22;37709;53.480;9.688;2023-07-31T09:03:00;19.20;99.90
2407;DHT22;37709;53.480;9.688;2023-07-31T09:05:30;19.00;99.90
2407;DHT22;37709;53.480;9.688;2023-07-31T09:08:00;19.00;99.90
2407;DHT22;37709;53.480;9.688;2023-07-31T09:10:28;18.80;99.90
2407;DHT22;37709;53.480;9.688;2023-07-31T09:12:56;18.80;99.90
2407;DHT22;37709;53.480;9.688;2023-07-31T09:15:25;18.60;99.90
2407;DHT22;37709;53.480;9.688;2023-07-31T09:18:05;18.80;99.90
2407;DHT22;37709;53.480;9.688;2023-07-31T09:20:34;19.00;99.90
2407;DHT22;37709;53.480;9.688;2023-07-31T09:23:20;19.00;99.90
2407;DHT22;37709;53.480;9.688;2023-07-31T09:25:48;19.10;99.90
2407;DHT22;37709;53.480;9.688;2023-07-31T09:28:16;19.10;99.90
2407;DHT22;37709;53.480;9.688;2023-07-31T09:30:47;19.20;99.90
2407;DHT22;37709;53.480;9.688;2023-07-31T09:33:15;19.20;99.90
2407;DHT22;37709;53.480;9.688;2023-07-31T09:35:43;19.60;99.90
2407;DHT22;37709;53.480;9.688;2023-07-31T09:38:12;19.70;99.90
2407;DHT22;37709;53.480;9.688;2023-07-31T09:40:47;19.40;99.90
2407;DHT22;37709;53.480;9.688;2023-07-31T09:43:19;19.40;99.90
2407;DHT22;37709;53.480;9.688;2023-07-31T09:45:47;19.70;99.90
2407;DHT22;37709;53.480;9.688;2023-07-31T09:48:16;19.70;99.90
2407;DHT22;37709;53.480;9.688;2023-07-31T09:50:46;19.60;99.90
2407;DHT22;37709;53.480;9.688;2023-07-31T09:53:14;19.40;99.90
2407;DHT22;37709;53.480;9.688;2023-07-31T09:55:44;19.30;99.90
2407;DHT22;37709;53.480;9.688;2023-07-31T09:58:12;19.10;99.90
2407;DHT22;37709;53.480;9.688;2023-07-31T10:00:40;18.90;99.90
2407;DHT22;37709;53.480;9.688;2023-07-31T10:03:09;18.60;99.90
2407;DHT22;37709;53.480;9.688;2023-07-31T10:05:44;18.40;99.90
2407;DHT22;37709;53.480;9.688;2023-07-31T10:08:15;18.40;99.90
2407;DHT22;37709;53.480;9.688;2023-07-31T10:10:44;18.20;99.90
2407;DHT22;37709;53.480;9.688;2023-07-31T10:13:13;17.90;99.90
2407;DHT22;37709;53.480;9.688;2023-07-31T10:15:41;17.70;99.90
2407;DHT22;37709;53.480;9.688;2023-07-31T10:18:11;17.80;99.90
2407;DHT22;37709;53.480;9.688;2023-07-31T10:20:40;17.80;99.90
2407;DHT22;37709;53.480;9.688;2023-07-31T10:23:08;17.90;99.90
2407;DHT22;37709;53.480;9.688;2023-07-31T10:25:35;17.90;99.90
2407;DHT22;37709;53.480;9.688;2023-07-31T10:28:03;18.00;99.90
2407;DHT22;37709;53.480;9.688;2023-07-31T10:30:32;18.00;99.90
2407;DHT22;37709;53.480;9.688;2023-07-31T10:33:01;18.00;99.90
2407;DHT22;37709;53.480;9.688;2023-07-31T10:35:29;18.40;99.90
2407;DHT22;37709;53.480;9.688;2023-07-31T10:38:11;18.80;99.90
2407;DHT22;37709;53.480;9.688;2023-07-31T10:40:39;18.90;99.90
2407;DHT22;37709;53.480;9.688;2023-07-31T10:43:07;19.00;99.90
2407;DHT22;37709;53.480;9.688;2023-07-31T10:45:48;19.30;99.90
2407;DHT22;37709;53.480;9.688;2023-07-31T10:48:20;19.40;99.90
2407;DHT22;37709;53.480;9.688;2023-07-31T10:50:50;19.70;99.90
2407;DHT22;37709;53.480;9.688;2023-07-31T10:53:31;20.10;99.90
2407;DHT22;37709;53.480;9.688;2023-07-31T10:56:02;20.20;99.90
2407;DHT22;37709;53.480;9.688;2023-07-31T10:58:31;20.20;99.90
2407;DHT22;37709;53.480;9.688;2023-07-31T11:01:05;20.30;99.90
2407;DHT22;37709;53.480;9.688;2023-07-31T11:03:48;20.10;99.90
2407;DHT22;37709;53.480;9.688;2023-07-31T11:06:16;19.40;99.90
2407;DHT22;37709;53.480;9.688;2023-07-31T11:08:47;19.40;99.90
2407;DHT22;37709;53.480;9.688;2023-07-31T11:11:17;19.20;99.90
2407;DHT22;37709;53.480;9.688;2023-07-31T11:13:49;18.90;99.90
2407;DHT22;37709;53.480;9.688;2023-07-31T11:16:22;18.80;99.90
2407;DHT22;37709;53.480;9.688;2023-07-31T11:18:50;18.90;99.90
2407;DHT22;37709;53.480;9.688;2023-07-31T11:21:21;18.90;99.90
2407;DHT22;37709;53.480;9.688;2023-07-31T11:23:51;18.70;99.90
2407;DHT22;37709;53.480;9.688;2023-07-31T11:26:20;18.50;99.90
2407;DHT22;37709;53.480;9.688;2023-07-31T11:28:48;18.60;99.90
2407;DHT22;37709;53.480;9.688;2023-07-31T11:31:17;18.80;99.90
2407;DHT22;37709;53.480;9.688;2023-07-31T11:33:45;18.80;99.90
2407;DHT22;37709;53.480;9.688;2023-07-31T11:36:17;18.70;99.90
2407;DHT22;37709;53.480;9.688;2023-07-31T11:38:45;18.70;99.90
2407;DHT22;37709;53.480;9.688;2023-07-31T11:41:14;19.00;99.90
2407;DHT22;37709;53.480;9.688;2023-07-31T11:43:43;19.10;99.90
2407;DHT22;37709;53.480;9.688;2023-07-31T11:46:10;19.00;99.90
2407;DHT22;37709;53.480;9.688;2023-07-31T11:48:40;18.80;99.90
2407;DHT22;37709;53.480;9.688;2023-07-31T11:51:11;18.70;99.90
2407;DHT22;37709;53.480;9.688;2023-07-31T11:53:51;18.60;99.90
2407;DHT22;37709;53.480;9.688;2023-07-31T11:56:21;18.60;99.90
2407;DHT22;37709;53.480;9.688;2023-07-31T11:58:57;18.60;99.90
2407;DHT22;37709;53.480;9.688;2023-07-31T12:01:26;18.50;99.90
2407;DHT22;37709;53.480;9.688;2023-07-31T12:03:56;18.20;99.90
2407;DHT22;37709;53.480;9.688;2023-07-31T12:06:34;18.00;99.90
2407;DHT22;37709;53.480;9.688;2023-07-31T12:09:03;18.00;99.90
2407;DHT22;37709;53.480;9.688;2023-07-31T12:11:42;18.10;99.90
2407;DHT22;37709;53.480;9.688;2023-07-31T12:14:25;18.20;99.90
2407;DHT22;37709;53.480;9.688;2023-07-31T12:17:19;18.10;99.90
2407;DHT22;37709;53.480;9.688;2023-07-31T12:19:48;18.40;99.90
2407;DHT22;37709;53.480;9.688;2023-07-31T12:22:16;18.90;99.90
2407;DHT22;37709;53.480;9.688;2023-07-31T12:24:44;18.90;99.90
2407;DHT22;37709;53.480;9.688;2023-07-31T12:27:15;19.20;99.90
2407;DHT22;37709;53.480;9.688;2023-07-31T12:29:42;19.30;99.90
2407;DHT22;37709;53.480;9.688;2023-07-31T12:32:20;19.60;99.90
2407;DHT22;37709;53.480;9.688;2023-07-31T12:34:47;19.30;99.90
2407;DHT22;37709;53.480;9.688;2023-07-31T12:37:14;19.10;99.90
2407;DHT22;37709;53.480;9.688;2023-07-31T12:39:42;19.10;99.90
2407;DHT22;37709;53.480;9.688;2023-07-31T12:42:09;19.10;99.90
2407;DHT22;37709;53.480;9.688;2023-07-31T12:44:36;19.20;99.90
2407;DHT22;37709;53.480;9.688;2023-07-31T12:47:04;19.30;99.90
2407;DHT22;37709;53.480;9.688;2023-07-31T12:49:33;19.30;99.90
2407;DHT22;37709;53.480;9.688;2023-07-31T12:52:00;19.30;99.90
2407;DHT22;37709;53.480;9.688;2023-07-31T12:54:27;19.30;99.90
2407;DHT22;37709;53.480;9.688;2023-07-31T12:56:57;19.20;99.90
2407;DHT22;37709;53.480;9.688;2023-07-31T12:59:25;19.00;99.90
2407;DHT22;37709;53.480;9.688;2023-07-31T13:01:57;19.00;99.90
2407;DHT22;37709;53.480;9.688;2023-07-31T13:04:24;19.00;99.90
2407;DHT22;37709;53.480;9.688;2023-07-31T13:06:54;19.00;99.90
2407;DHT22;37709;53.480;9.688;2023-07-31T13:09:23;19.00;99.90
2407;DHT22;37709;53.480;9.688;2023-07-31T13:11:51;19.10;99.90
2407;DHT22;37709;53.480;9.688;2023-07-31T13:14:25;19.40;99.90
2407;DHT22;37709;53.480;9.688;2023-07-31T13:16:52;19.50;99.90
2407;DHT22;37709;53.480;9.688;2023-07-31T13:19:20;19.50;99.90
2407;DHT22;37709;53.480;9.688;2023-07-31T13:21:48;19.50;99.90
2407;DHT22;37709;53.480;9.688;2023-07-31T13:24:15;19.60;99.90
2407;DHT22;37709;53.480;9.688;2023-07-31T13:27:08;19.70;99.90
2407;DHT22;37709;53.480;9.688;2023-07-31T13:29:35;19.70;99.90
2407;DHT22;37709;53.480;9.688;2023-07-31T13:32:03;19.70;99.90
2407;DHT22;37709;53.480;9.688;2023-07-31T13:34:30;20.00;99.90
2407;DHT22;37709;53.480;9.688;2023-07-31T13:36:57;20.10;99.90
2407;DHT22;37709;53.480;9.688;2023-07-31T13:39:25;19.90;99.90
2407;DHT22;37709;53.480;9.688;2023-07-31T13:41:52;20.00;99.90
2407;DHT22;37709;53.480;9.688;2023-07-31T13:44:24;20.10;99.90
2407;DHT22;37709;53.480;9.688;2023-07-31T13:46:52;20.20;99.90
2407;DHT22;37709;53.480;9.688;2023-07-31T13:49:19;20.20;99.90
2407;DHT22;37709;53.480;9.688;2023-07-31T13:51:47;20.10;99.90
2407;DHT22;37709;53.480;9.688;2023-07-31T13:54:22;20.20;99.90
2407;DHT22;37709;53.480;9.688;2023-07-31T13:56:50;19.80;99.90
2407;DHT22;37709;53.480;9.688;2023-07-31T13:59:18;19.40;99.90
2407;DHT22;37709;53.480;9.688;2023-07-31T14:01:46;18.90;99.90
2407;DHT22;37709;53.480;9.688;2023-07-31T14:04:14;18.50;99.90
2407;DHT22;37709;53.480;9.688;2023-07-31T14:06:43;18.30;99.90
2407;DHT22;37709;53.480;9.688;2023-07-31T14:09:11;18.20;99.90
2407;DHT22;37709;53.480;9.688;2023-07-31T14:11:39;18.20;99.90
2407;DHT22;37709;53.480;9.688;2023-07-31T14:14:09;18.30;99.90
2407;DHT22;37709;53.480;9.688;2023-07-31T14:16:37;18.40;99.90
2407;DHT22;37709;53.480;9.688;2023-07-31T14:19:05;18.50;99.90
2407;DHT22;37709;53.480;9.688;2023-07-31T14:21:33;18.70;99.90
2407;DHT22;37709;53.480;9.688;2023-07-31T14:24:00;19.00;99.90
2407;DHT22;37709;53.480;9.688;2023-07-31T14:26:27;19.10;99.90
2407;DHT22;37709;53.480;9.688;2023-07-31T14:28:54;19.10;99.90
2407;DHT22;37709;53.480;9.688;2023-07-31T14:31:23;19.10;99.90
2407;DHT22;37709;53.480;9.688;2023-07-31T14:33:51;19.40;99.90
2407;DHT22;37709;53.480;9.688;2023-07-31T14:36:18;19.90;99.90
2407;DHT22;37709;53.480;9.688;2023-07-31T14:38:46;19.90;99.90
2407;DHT22;37709;53.480;9.688;2023-07-31T14:41:13;19.90;99.90
2407;DHT22;37709;53.480;9.688;2023-07-31T14:43:42;19.90;99.90
2407;DHT22;37709;53.480;9.688;2023-07-31T14:46:09;20.00;99.90
2407;DHT22;37709;53.480;9.688;2023-07-31T14:48:36;19.80;99.90
2407;DHT22;37709;53.480;9.688;2023-07-31T14:51:04;19.50;99.90
2407;DHT22;37709;53.480;9.688;2023-07-31T14:53:31;19.20;99.90
2407;DHT22;37709;53.480;9.688;2023-07-31T14:55:59;18.80;99.90
2407;DHT22;37709;53.480;9.688;2023-07-31T14:58:26;18.80;99.90
2407;DHT22;37709;53.480;9.688;2023-07-31T15:00:58;18.70;99.90
2407;DHT22;37709;53.480;9.688;2023-07-31T15:03:25;18.60;99.90
2407;DHT22;37709;53.480;9.688;2023-07-31T15:05:54;18.50;99.90
2407;DHT22;37709;53.480;9.688;2023-07-31T15:08:22;18.40;99.90
2407;DHT22;37709;53.480;9.688;2023-07-31T15:10:49;18.60;99.90
2407;DHT22;37709;53.480;9.688;2023-07-31T15:13:17;18.80;99.90
2407;DHT22;37709;53.480;9.688;2023-07-31T15:15:45;18.80;99.90
2407;DHT22;37709;53.480;9.688;2023-07-31T15:18:12;18.60;99.90
2407;DHT22;37709;53.480;9.688;2023-07-31T15:20:42;18.40;99.90
2407;DHT22;37709;53.480;9.688;2023-07-31T15:23:09;18.20;99.90
2407;DHT22;37709;53.480;9.688;2023-07-31T15:25:37;18.10;99.90
2407;DHT22;37709;53.480;9.688;2023-07-31T15:28:04;18.00;99.90
2407;DHT22;37709;53.480;9.688;2023-07-31T15:30:35;17.80;99.90
2407;DHT22;37709;53.480;9.688;2023-07-31T15:33:02;17.70;99.90
2407;DHT22;37709;53.480;9.688;2023-07-31T15:35:29;17.60;99.90
2407;DHT22;37709;53.480;9.688;2023-07-31T15:37:58;17.60;99.90
2407;DHT22;37709;53.480;9.688;2023-07-31T15:40:26;17.60;99.90
2407;DHT22;37709;53.480;9.688;2023-07-31T15:42:53;17.60;99.90
2407;DHT22;37709;53.480;9.688;2023-07-31T15:45:21;17.60;99.90
2407;DHT22;37709;53.480;9.688;2023-07-31T15:47:48;17.70;99.90
2407;DHT22;37709;53.480;9.688;2023-07-31T15:50:16;17.70;99.90
2407;DHT22;37709;53.480;9.688;2023-07-31T15:52:44;17.70;99.90
2407;DHT22;37709;53.480;9.688;2023-07-31T15:55:11;17.80;99.90
2407;DHT22;37709;53.480;9.688;2023-07-31T15:57:38;17.70;99.90
2407;DHT22;37709;53.480;9.688;2023-07-31T16:00:07;17.70;99.90
2407;DHT22;37709;53.480;9.688;2023-07-31T16:02:37;17.70;99.90